sensor_id;sensor_type;location;lat;lon;timestamp;pressure;altitude;pressure_sealevel;temperature;humidity
32083;BME280;18597;48.328;7.932;2023-03-11T00:00:49;98711.97;;;4.03;100.00
32083;BME280;18597;48.328;7.932;2023-03-11T00:03:18;98719.22;;;3.88;100.00
32083;BME280;18597;48.328;7.932;2023-03-11T00:05:45;98705.56;;;3.95;100.00
32083;BME280;18597;48.328;7.932;2023-03-11T00:08:16;98705.75;;;3.92;100.00
32083;BME280;18597;48.328;7.932;2023-03-11T00:10:45;98710.44;;;3.88;100.00
32083;BME280;18597;48.328;7.932;2023-03-11T00:13:14;98702.44;;;3.77;100.00
32083;BME280;18597;48.328;7.932;2023-03-11T00:15:43;98693.38;;;3.68;100.00
32083;BME280;18597;48.328;7.932;2023-03-11T00:18:09;98691.69;;;3.67;100.00
32083;BME280;18597;48.328;7.932;2023-03-11T00:20:38;98688.09;;;3.68;100.00
32083;BME280;18597;48.328;7.932;2023-03-11T00:23:06;98680.72;;;3.60;100.00
32083;BME280;18597;48.328;7.932;2023-03-11T00:25:35;98678.31;;;3.57;100.00
32083;BME280;18597;48.328;7.932;2023-03-11T00:28:01;98670.00;;;3.51;100.00
32083;BME280;18597;48.328;7.932;2023-03-11T00:30:28;98668.88;;;3.42;100.00
32083;BME280;18597;48.328;7.932;2023-03-11T00:32:56;98666.34;;;3.28;100.00
32083;BME280;18597;48.328;7.932;2023-03-11T00:35:26;98683.88;;;3.29;100.00
32083;BME280;18597;48.328;7.932;2023-03-11T00:37:59;98681.91;;;3.20;100.00
32083;BME280;18597;48.328;7.932;2023-03-11T00:40:29;98695.53;;;3.14;100.00
32083;BME280;18597;48.328;7.932;2023-03-11T00:42:56;98692.34;;;3.09;95.64
32083;BME280;18597;48.328;7.932;2023-03-11T00:45:22;98688.22;;;3.17;94.85
32083;BME280;18597;48.328;7.932;2023-03-11T00:47:50;98682.56;;;3.11;94.32
32083;BME280;18597;48.328;7.932;2023-03-11T00:50:21;98683.41;;;3.11;95.24
32083;BME280;18597;48.328;7.932;2023-03-11T00:52:48;98684.88;;;3.02;94.58
32083;BME280;18597;48.328;7.932;2023-03-11T00:55:20;98699.97;;;3.00;95.01
32083;BME280;18597;48.328;7.932;2023-03-11T00:57:46;98711.97;;;2.79;98.99
32083;BME280;18597;48.328;7.932;2023-03-11T01:00:17;98702.41;;;2.91;96.60
32083;BME280;18597;48.328;7.932;2023-03-11T01:02:44;98706.81;;;2.77;97.56
32083;BME280;18597;48.328;7.932;2023-03-11T01:05:10;98695.53;;;2.75;97.71
32083;BME280;18597;48.328;7.932;2023-03-11T01:07:36;98698.59;;;2.69;99.66
32083;BME280;18597;48.328;7.932;2023-03-11T01:10:03;98702.78;;;2.72;97.66
32083;BME280;18597;48.328;7.932;2023-03-11T01:12:30;98725.69;;;2.59;100.00
32083;BME280;18597;48.328;7.932;2023-03-11T01:14:55;98739.28;;;2.53;100.00
32083;BME280;18597;48.328;7.932;2023-03-11T01:17:21;98742.97;;;2.63;98.58
32083;BME280;18597;48.328;7.932;2023-03-11T01:19:48;98737.53;;;2.66;98.61
32083;BME280;18597;48.328;7.932;2023-03-11T01:22:15;98725.28;;;2.65;99.50
32083;BME280;18597;48.328;7.932;2023-03-11T01:24:41;98734.03;;;2.65;100.00
32083;BME280;18597;48.328;7.932;2023-03-11T01:27:07;98725.44;;;2.49;100.00
32083;BME280;18597;48.328;7.932;2023-03-11T01:29:33;98720.59;;;2.56;100.00
32083;BME280;18597;48.328;7.932;2023-03-11T01:31:58;98718.59;;;2.46;100.00
32083;BME280;18597;48.328;7.932;2023-03-11T01:34:25;98721.78;;;2.52;100.00
32083;BME280;18597;48.328;7.932;2023-03-11T01:36:51;98739.28;;;2.53;100.00
32083;BME280;18597;48.328;7.932;2023-03-11T01:39:17;98718.41;;;2.49;100.00
32083;BME280;18597;48.328;7.932;2023-03-11T01:41:43;98725.69;;;2.59;100.00
32083;BME280;18597;48.328;7.932;2023-03-11T01:44:11;98696.69;;;2.59;99.67
32083;BME280;18597;48.328;7.932;2023-03-11T01:49:32;98676.31;;;2.61;99.04
32083;BME280;18597;48.328;7.932;2023-03-11T01:52:04;98668.84;;;2.67;97.07
32083;BME280;18597;48.328;7.932;2023-03-11T01:54:37;98672.00;;;2.60;99.68
32083;BME280;18597;48.328;7.932;2023-03-11T01:57:07;98687.91;;;2.45;100.00
32083;BME280;18597;48.328;7.932;2023-03-11T01:59:47;98697.41;;;2.35;100.00
32083;BME280;18597;48.328;7.932;2023-03-11T02:02:24;98711.94;;;2.41;100.00
32083;BME280;18597;48.328;7.932;2023-03-11T02:04:54;98714.78;;;2.38;100.00
32083;BME280;18597;48.328;7.932;2023-03-11T02:07:20;98716.69;;;2.48;99.65
32083;BME280;18597;48.328;7.932;2023-03-11T02:09:46;98719.25;;;2.50;98.68
32083;BME280;18597;48.328;7.932;2023-03-11T02:12:13;98724.09;;;2.43;98.34
32083;BME280;18597;48.328;7.932;2023-03-11T02:14:44;98731.66;;;2.35;99.40
32083;BME280;18597;48.328;7.932;2023-03-11T02:17:11;98731.56;;;2.37;99.54
32083;BME280;18597;48.328;7.932;2023-03-11T02:19:58;98744.13;;;2.19;100.00
32083;BME280;18597;48.328;7.932;2023-03-11T02:22:27;98750.94;;;2.09;100.00
32083;BME280;18597;48.328;7.932;2023-03-11T02:25:39;98743.00;;;1.96;100.00
32083;BME280;18597;48.328;7.932;2023-03-11T02:28:11;98735.97;;;1.97;100.00
32083;BME280;18597;48.328;7.932;2023-03-11T02:30:41;98747.53;;;1.94;100.00
32083;BME280;18597;48.328;7.932;2023-03-11T02:33:09;98739.78;;;2.05;100.00
32083;BME280;18597;48.328;7.932;2023-03-11T02:35:36;98734.16;;;1.97;100.00
32083;BME280;18597;48.328;7.932;2023-03-11T02:38:02;98731.25;;;1.87;100.00
32083;BME280;18597;48.328;7.932;2023-03-11T02:40:47;98726.00;;;1.87;100.00
32083;BME280;18597;48.328;7.932;2023-03-11T02:43:18;98727.19;;;1.96;100.00
32083;BME280;18597;48.328;7.932;2023-03-11T02:45:47;98724.53;;;1.96;100.00
32083;BME280;18597;48.328;7.932;2023-03-11T02:48:15;98717.81;;;1.92;100.00
32083;BME280;18597;48.328;7.932;2023-03-11T02:50:41;98710.84;;;1.91;100.00
32083;BME280;18597;48.328;7.932;2023-03-11T02:53:08;98706.38;;;1.79;100.00
32083;BME280;18597;48.328;7.932;2023-03-11T02:55:35;98696.19;;;1.87;100.00
32083;BME280;18597;48.328;7.932;2023-03-11T02:58:01;98705.16;;;1.70;100.00
32083;BME280;18597;48.328;7.932;2023-03-11T03:00:27;98711.97;;;1.60;100.00
32083;BME280;18597;48.328;7.932;2023-03-11T03:02:52;98725.66;;;1.65;100.00
32083;BME280;18597;48.328;7.932;2023-03-11T03:05:20;98740.09;;;1.59;99.73
32083;BME280;18597;48.328;7.932;2023-03-11T03:07:47;98750.16;;;1.53;100.00
32083;BME280;18597;48.328;7.932;2023-03-11T03:10:15;98729.47;;;1.61;100.00
32083;BME280;18597;48.328;7.932;2023-03-11T03:12:42;98712.84;;;1.46;100.00
32083;BME280;18597;48.328;7.932;2023-03-11T03:15:09;98716.53;;;1.44;100.00
32083;BME280;18597;48.328;7.932;2023-03-11T03:17:36;98712.59;;;1.36;100.00
32083;BME280;18597;48.328;7.932;2023-03-11T03:20:02;98710.50;;;1.27;100.00
32083;BME280;18597;48.328;7.932;2023-03-11T03:22:31;98717.84;;;1.22;100.00
32083;BME280;18597;48.328;7.932;2023-03-11T03:24:57;98706.75;;;1.17;100.00
32083;BME280;18597;48.328;7.932;2023-03-11T03:27:23;98701.22;;;1.22;100.00
32083;BME280;18597;48.328;7.932;2023-03-11T03:29:49;98701.78;;;1.13;100.00
32083;BME280;18597;48.328;7.932;2023-03-11T03:32:15;98707.03;;;1.13;100.00
32083;BME280;18597;48.328;7.932;2023-03-11T03:34:41;98714.09;;;1.12;100.00
32083;BME280;18597;48.328;7.932;2023-03-11T03:37:06;98719.91;;;1.03;100.00
32083;BME280;18597;48.328;7.932;2023-03-11T03:39:32;98748.56;;;0.93;100.00
32083;BME280;18597;48.328;7.932;2023-03-11T03:41:58;98753.16;;;0.90;100.00
32083;BME280;18597;48.328;7.932;2023-03-11T03:44:24;98762.72;;;0.76;100.00
32083;BME280;18597;48.328;7.932;2023-03-11T03:46:50;98765.72;;;0.70;100.00
32083;BME280;18597;48.328;7.932;2023-03-11T03:49:16;98768.00;;;0.76;100.00
32083;BME280;18597;48.328;7.932;2023-03-11T03:51:42;98770.69;;;0.75;100.00
32083;BME280;18597;48.328;7.932;2023-03-11T03:54:08;98766.72;;;0.68;100.00
32083;BME280;18597;48.328;7.932;2023-03-11T03:56:33;98768.34;;;0.70;100.00
32083;BME280;18597;48.328;7.932;2023-03-11T03:58:59;98765.00;;;0.52;100.00
32083;BME280;18597;48.328;7.932;2023-03-11T04:01:25;98766.22;;;0.47;100.00
32083;BME280;18597;48.328;7.932;2023-03-11T04:03:51;98771.13;;;0.37;100.00
32083;BME280;18597;48.328;7.932;2023-03-11T04:06:20;98764.06;;;0.23;100.00
32083;BME280;18597;48.328;7.932;2023-03-11T04:08:47;98755.84;;;0.14;100.00
32083;BME280;18597;48.328;7.932;2023-03-11T04:11:13;98748.66;;;0.47;100.00
32083;BME280;18597;48.328;7.932;2023-03-11T04:13:39;98746.13;;;0.16;100.00
32083;BME280;18597;48.328;7.932;2023-03-11T04:16:06;98755.94;;;0.12;100.00
32083;BME280;18597;48.328;7.932;2023-03-11T04:18:33;98762.81;;;-0.01;100.00
32083;BME280;18597;48.328;7.932;2023-03-11T04:20:59;98761.75;;;-0.29;100.00
32083;BME280;18597;48.328;7.932;2023-03-11T04:23:25;98760.06;;;-0.30;100.00
32083;BME280;18597;48.328;7.932;2023-03-11T04:25:50;98766.16;;;-0.45;100.00
32083;BME280;18597;48.328;7.932;2023-03-11T04:28:16;98771.94;;;-0.56;100.00
32083;BME280;18597;48.328;7.932;2023-03-11T04:30:42;98780.09;;;-0.60;100.00
32083;BME280;18597;48.328;7.932;2023-03-11T04:33:08;98786.09;;;-0.58;100.00
32083;BME280;18597;48.328;7.932;2023-03-11T04:35:34;98787.34;;;-0.65;100.00
32083;BME280;18597;48.328;7.932;2023-03-11T04:38:02;98785.41;;;-0.62;100.00
32083;BME280;18597;48.328;7.932;2023-03-11T04:40:27;98785.38;;;-0.77;100.00
32083;BME280;18597;48.328;7.932;2023-03-11T04:42:53;98795.41;;;-0.86;100.00
32083;BME280;18597;48.328;7.932;2023-03-11T04:45:19;98795.72;;;-0.92;100.00
32083;BME280;18597;48.328;7.932;2023-03-11T04:47:48;98806.06;;;-0.89;100.00
32083;BME280;18597;48.328;7.932;2023-03-11T04:50:14;98802.59;;;-0.89;100.00
32083;BME280;18597;48.328;7.932;2023-03-11T04:52:40;98802.06;;;-0.96;100.00
32083;BME280;18597;48.328;7.932;2023-03-11T04:55:07;98799.84;;;-1.03;100.00
32083;BME280;18597;48.328;7.932;2023-03-11T04:57:33;98804.38;;;-1.07;100.00
32083;BME280;18597;48.328;7.932;2023-03-11T04:59:58;98806.25;;;-1.09;100.00
32083;BME280;18597;48.328;7.932;2023-03-11T05:02:24;98806.19;;;-0.74;100.00
32083;BME280;18597;48.328;7.932;2023-03-11T05:04:50;98811.16;;;-0.86;100.00
32083;BME280;18597;48.328;7.932;2023-03-11T05:07:16;98813.44;;;-0.79;100.00
32083;BME280;18597;48.328;7.932;2023-03-11T05:09:42;98813.63;;;-0.82;100.00
32083;BME280;18597;48.328;7.932;2023-03-11T05:12:11;98800.84;;;-0.89;100.00
32083;BME280;18597;48.328;7.932;2023-03-11T05:14:37;98785.31;;;-0.93;100.00
32083;BME280;18597;48.328;7.932;2023-03-11T05:17:03;98784.47;;;-0.94;100.00
32083;BME280;18597;48.328;7.932;2023-03-11T05:19:29;98779.97;;;-0.74;100.00
32083;BME280;18597;48.328;7.932;2023-03-11T05:21:55;98786.59;;;-0.67;100.00
32083;BME280;18597;48.328;7.932;2023-03-11T05:24:22;98789.69;;;-0.76;100.00
32083;BME280;18597;48.328;7.932;2023-03-11T05:26:48;98790.94;;;-0.84;100.00
32083;BME280;18597;48.328;7.932;2023-03-11T05:29:13;98793.94;;;-0.91;100.00
32083;BME280;18597;48.328;7.932;2023-03-11T05:31:39;98785.63;;;-0.82;100.00
32083;BME280;18597;48.328;7.932;2023-03-11T05:34:05;98784.97;;;-0.70;100.00
32083;BME280;18597;48.328;7.932;2023-03-11T05:36:31;98785.28;;;-0.76;100.00
32083;BME280;18597;48.328;7.932;2023-03-11T05:38:57;98789.06;;;-0.48;100.00
32083;BME280;18597;48.328;7.932;2023-03-11T05:41:23;98795.50;;;-0.38;100.00
32083;BME280;18597;48.328;7.932;2023-03-11T05:43:49;98800.28;;;-0.62;100.00
32083;BME280;18597;48.328;7.932;2023-03-11T05:46:15;98803.56;;;-0.25;100.00
32083;BME280;18597;48.328;7.932;2023-03-11T05:48:40;98791.69;;;-0.33;100.00
32083;BME280;18597;48.328;7.932;2023-03-11T05:51:08;98797.38;;;-0.24;100.00
32083;BME280;18597;48.328;7.932;2023-03-11T05:53:36;98794.75;;;-0.24;100.00
32083;BME280;18597;48.328;7.932;2023-03-11T05:56:03;98799.25;;;-0.26;100.00
32083;BME280;18597;48.328;7.932;2023-03-11T05:58:31;98801.34;;;-0.49;100.00
32083;BME280;18597;48.328;7.932;2023-03-11T06:00:57;98802.53;;;-0.39;100.00
32083;BME280;18597;48.328;7.932;2023-03-11T06:03:24;98789.41;;;-0.39;100.00
32083;BME280;18597;48.328;7.932;2023-03-11T06:05:51;98797.44;;;-0.42;100.00
32083;BME280;18597;48.328;7.932;2023-03-11T06:08:18;98797.63;;;-0.45;100.00
32083;BME280;18597;48.328;7.932;2023-03-11T06:10:44;98803.47;;;-0.40;100.00
32083;BME280;18597;48.328;7.932;2023-03-11T06:13:10;98805.31;;;-0.42;100.00
32083;BME280;18597;48.328;7.932;2023-03-11T06:15:37;98816.25;;;-0.34;100.00
32083;BME280;18597;48.328;7.932;2023-03-11T06:18:03;98819.91;;;-0.20;100.00
32083;BME280;18597;48.328;7.932;2023-03-11T06:20:30;98818.78;;;-0.16;100.00
32083;BME280;18597;48.328;7.932;2023-03-11T06:22:56;98821.38;;;0.01;100.00
32083;BME280;18597;48.328;7.932;2023-03-11T06:25:22;98818.28;;;0.24;100.00
32083;BME280;18597;48.328;7.932;2023-03-11T06:27:50;98835.66;;;0.27;100.00
32083;BME280;18597;48.328;7.932;2023-03-11T06:30:18;98837.91;;;0.49;100.00
32083;BME280;18597;48.328;7.932;2023-03-11T06:32:45;98831.97;;;0.45;100.00
32083;BME280;18597;48.328;7.932;2023-03-11T06:35:12;98842.94;;;0.68;100.00
32083;BME280;18597;48.328;7.932;2023-03-11T06:37:38;98843.88;;;0.97;100.00
32083;BME280;18597;48.328;7.932;2023-03-11T06:40:07;98849.94;;;1.13;100.00
32083;BME280;18597;48.328;7.932;2023-03-11T06:42:34;98859.31;;;1.03;100.00
32083;BME280;18597;48.328;7.932;2023-03-11T06:45:01;98870.41;;;1.08;100.00
32083;BME280;18597;48.328;7.932;2023-03-11T06:47:27;98860.84;;;1.07;100.00
32083;BME280;18597;48.328;7.932;2023-03-11T06:49:53;98859.81;;;1.09;100.00
32083;BME280;18597;48.328;7.932;2023-03-11T06:52:19;98858.44;;;1.32;100.00
32083;BME280;18597;48.328;7.932;2023-03-11T06:54:45;98865.03;;;1.54;100.00
32083;BME280;18597;48.328;7.932;2023-03-11T06:57:12;98854.31;;;1.85;100.00
32083;BME280;18597;48.328;7.932;2023-03-11T06:59:38;98861.31;;;2.28;100.00
32083;BME280;18597;48.328;7.932;2023-03-11T07:02:05;98861.41;;;2.80;100.00
32083;BME280;18597;48.328;7.932;2023-03-11T07:04:31;98856.09;;;3.20;100.00
32083;BME280;18597;48.328;7.932;2023-03-11T07:06:58;98869.41;;;3.18;100.00
32083;BME280;18597;48.328;7.932;2023-03-11T07:09:24;98872.28;;;2.88;100.00
32083;BME280;18597;48.328;7.932;2023-03-11T07:11:51;98871.19;;;2.78;100.00
32083;BME280;18597;48.328;7.932;2023-03-11T07:14:18;98874.38;;;2.83;100.00
32083;BME280;18597;48.328;7.932;2023-03-11T07:16:44;98875.84;;;2.74;100.00
32083;BME280;18597;48.328;7.932;2023-03-11T07:19:12;98890.53;;;2.64;100.00
32083;BME280;18597;48.328;7.932;2023-03-11T07:21:39;98874.66;;;2.66;100.00
32083;BME280;18597;48.328;7.932;2023-03-11T07:24:05;98874.47;;;2.55;100.00
32083;BME280;18597;48.328;7.932;2023-03-11T07:26:33;98877.31;;;2.52;100.00
32083;BME280;18597;48.328;7.932;2023-03-11T07:29:00;98890.03;;;2.72;100.00
32083;BME280;18597;48.328;7.932;2023-03-11T07:31:30;98892.28;;;2.78;100.00
32083;BME280;18597;48.328;7.932;2023-03-11T07:33:59;98896.09;;;2.74;100.00
32083;BME280;18597;48.328;7.932;2023-03-11T07:36:27;98906.44;;;2.77;100.00
32083;BME280;18597;48.328;7.932;2023-03-11T07:38:58;98905.09;;;2.84;100.00
32083;BME280;18597;48.328;7.932;2023-03-11T07:41:25;98913.34;;;2.92;100.00
32083;BME280;18597;48.328;7.932;2023-03-11T07:43:55;98912.69;;;3.28;100.00
32083;BME280;18597;48.328;7.932;2023-03-11T07:46:23;98910.81;;;3.69;100.00
32083;BME280;18597;48.328;7.932;2023-03-11T07:48:51;98922.97;;;4.09;100.00
32083;BME280;18597;48.328;7.932;2023-03-11T07:51:27;98918.59;;;4.34;97.96
32083;BME280;18597;48.328;7.932;2023-03-11T07:53:56;98912.31;;;4.48;92.03
32083;BME280;18597;48.328;7.932;2023-03-11T07:56:26;98913.59;;;4.79;92.29
32083;BME280;18597;48.328;7.932;2023-03-11T07:58:53;98910.09;;;5.02;87.16
32083;BME280;18597;48.328;7.932;2023-03-11T08:01:22;98916.16;;;5.15;83.23
32083;BME280;18597;48.328;7.932;2023-03-11T08:03:51;98913.25;;;5.07;83.90
32083;BME280;18597;48.328;7.932;2023-03-11T08:06:27;98919.28;;;5.44;80.64
32083;BME280;18597;48.328;7.932;2023-03-11T08:08:53;98916.09;;;5.85;80.17
32083;BME280;18597;48.328;7.932;2023-03-11T08:11:20;98914.91;;;6.46;75.85
32083;BME280;18597;48.328;7.932;2023-03-11T08:13:47;98904.22;;;6.79;69.05
32083;BME280;18597;48.328;7.932;2023-03-11T08:16:17;98910.00;;;6.95;67.85
32083;BME280;18597;48.328;7.932;2023-03-11T08:18:44;98920.47;;;6.97;66.58
32083;BME280;18597;48.328;7.932;2023-03-11T08:21:15;98925.84;;;7.18;61.17
32083;BME280;18597;48.328;7.932;2023-03-11T08:23:42;98930.75;;;7.22;58.86
32083;BME280;18597;48.328;7.932;2023-03-11T08:26:13;98930.69;;;7.13;58.34
32083;BME280;18597;48.328;7.932;2023-03-11T08:28:40;98925.91;;;6.95;59.71
32083;BME280;18597;48.328;7.932;2023-03-11T08:31:16;98926.69;;;6.64;55.42
32083;BME280;18597;48.328;7.932;2023-03-11T08:33:46;98922.53;;;6.50;57.24
32083;BME280;18597;48.328;7.932;2023-03-11T08:36:15;98929.38;;;6.53;57.90
32083;BME280;18597;48.328;7.932;2023-03-11T08:38:41;98935.06;;;6.37;55.57
32083;BME280;18597;48.328;7.932;2023-03-11T08:41:07;98933.00;;;5.96;53.49
32083;BME280;18597;48.328;7.932;2023-03-11T08:43:33;98942.81;;;5.71;53.85
32083;BME280;18597;48.328;7.932;2023-03-11T08:46:00;98950.16;;;5.68;55.34
32083;BME280;18597;48.328;7.932;2023-03-11T08:48:27;98944.41;;;5.39;54.35
32083;BME280;18597;48.328;7.932;2023-03-11T08:50:53;98944.09;;;5.19;55.99
32083;BME280;18597;48.328;7.932;2023-03-11T08:53:20;98944.41;;;5.39;58.13
32083;BME280;18597;48.328;7.932;2023-03-11T08:55:46;98944.28;;;5.29;56.20
32083;BME280;18597;48.328;7.932;2023-03-11T08:58:11;98942.19;;;5.21;56.33
32083;BME280;18597;48.328;7.932;2023-03-11T09:00:37;98947.25;;;5.24;55.29
32083;BME280;18597;48.328;7.932;2023-03-11T09:03:03;98951.47;;;5.03;57.04
32083;BME280;18597;48.328;7.932;2023-03-11T09:05:29;98945.75;;;5.09;56.94
32083;BME280;18597;48.328;7.932;2023-03-11T09:07:55;98955.59;;;5.07;56.00
32083;BME280;18597;48.328;7.932;2023-03-11T09:10:22;98957.47;;;4.94;55.81
32083;BME280;18597;48.328;7.932;2023-03-11T09:12:47;98951.25;;;5.06;56.07
32083;BME280;18597;48.328;7.932;2023-03-11T09:15:13;98956.16;;;5.23;55.34
32083;BME280;18597;48.328;7.932;2023-03-11T09:17:39;98956.88;;;5.25;55.65
32083;BME280;18597;48.328;7.932;2023-03-11T09:20:06;98961.47;;;5.35;55.29
32083;BME280;18597;48.328;7.932;2023-03-11T09:22:32;98969.75;;;5.54;56.16
32083;BME280;18597;48.328;7.932;2023-03-11T09:24:57;98971.44;;;5.55;55.70
32083;BME280;18597;48.328;7.932;2023-03-11T09:27:23;98979.06;;;5.60;53.03
32083;BME280;18597;48.328;7.932;2023-03-11T09:29:49;98968.47;;;5.60;55.23
32083;BME280;18597;48.328;7.932;2023-03-11T09:32:15;98967.50;;;5.72;55.48
32083;BME280;18597;48.328;7.932;2023-03-11T09:34:41;98973.44;;;5.87;54.75
32083;BME280;18597;48.328;7.932;2023-03-11T09:37:07;98969.06;;;5.98;51.23
32083;BME280;18597;48.328;7.932;2023-03-11T09:39:33;98968.34;;;5.72;51.45
32083;BME280;18597;48.328;7.932;2023-03-11T09:42:24;98969.13;;;5.50;51.10
32083;BME280;18597;48.328;7.932;2023-03-11T09:45:19;98979.84;;;5.49;51.83
32083;BME280;18597;48.328;7.932;2023-03-11T09:51:35;98977.91;;;5.51;51.74
32083;BME280;18597;48.328;7.932;2023-03-11T09:53:54;98970.78;;;5.75;53.32
32083;BME280;18597;48.328;7.932;2023-03-11T09:56:21;98971.88;;;5.84;51.98
32083;BME280;18597;48.328;7.932;2023-03-11T09:58:53;98975.69;;;6.15;52.75
32083;BME280;18597;48.328;7.932;2023-03-11T10:01:28;98964.47;;;6.34;51.28
32083;BME280;18597;48.328;7.932;2023-03-11T10:04:02;98973.59;;;5.96;49.64
32083;BME280;18597;48.328;7.932;2023-03-11T10:06:30;98956.31;;;5.68;50.38
32083;BME280;18597;48.328;7.932;2023-03-11T10:09:28;98949.28;;;5.56;51.31
32083;BME280;18597;48.328;7.932;2023-03-11T10:15:41;98954.38;;;5.81;52.09
32083;BME280;18597;48.328;7.932;2023-03-11T10:18:51;98960.19;;;5.87;49.94
32083;BME280;18597;48.328;7.932;2023-03-11T10:21:58;98960.44;;;5.83;51.67
32083;BME280;18597;48.328;7.932;2023-03-11T10:24:47;98955.00;;;5.85;50.72
32083;BME280;18597;48.328;7.932;2023-03-11T10:27:20;98956.09;;;5.82;50.68
32083;BME280;18597;48.328;7.932;2023-03-11T10:32:44;98964.72;;;5.73;49.88
32083;BME280;18597;48.328;7.932;2023-03-11T10:35:20;98955.22;;;5.71;48.62
32083;BME280;18597;48.328;7.932;2023-03-11T10:38:02;98952.44;;;5.72;49.26
32083;BME280;18597;48.328;7.932;2023-03-11T10:40:32;98955.94;;;5.73;49.67
32083;BME280;18597;48.328;7.932;2023-03-11T10:43:03;98964.84;;;5.61;48.27
32083;BME280;18597;48.328;7.932;2023-03-11T10:45:37;98961.28;;;5.49;47.92
32083;BME280;18597;48.328;7.932;2023-03-11T10:48:13;98954.25;;;5.61;48.03
32083;BME280;18597;48.328;7.932;2023-03-11T10:53:20;98949.00;;;5.37;47.27
32083;BME280;18597;48.328;7.932;2023-03-11T10:55:52;98954.03;;;5.40;47.88
32083;BME280;18597;48.328;7.932;2023-03-11T10:58:24;98952.09;;;5.31;45.99
32083;BME280;18597;48.328;7.932;2023-03-11T11:01:14;98944.31;;;5.16;46.88
32083;BME280;18597;48.328;7.932;2023-03-11T11:03:44;98947.50;;;5.21;46.85
32083;BME280;18597;48.328;7.932;2023-03-11T11:06:33;98947.69;;;5.18;48.60
32083;BME280;18597;48.328;7.932;2023-03-11T11:09:21;98939.69;;;5.31;48.43
32083;BME280;18597;48.328;7.932;2023-03-11T11:12:16;98946.56;;;5.34;49.02
32083;BME280;18597;48.328;7.932;2023-03-11T11:14:51;98943.25;;;5.19;47.62
32083;BME280;18597;48.328;7.932;2023-03-11T11:17:29;98940.28;;;5.23;48.17
32083;BME280;18597;48.328;7.932;2023-03-11T11:19:57;98933.44;;;5.32;48.51
32083;BME280;18597;48.328;7.932;2023-03-11T11:22:24;98934.88;;;5.36;48.59
32083;BME280;18597;48.328;7.932;2023-03-11T11:24:53;98934.53;;;5.29;47.54
32083;BME280;18597;48.328;7.932;2023-03-11T11:27:26;98929.22;;;5.29;48.77
32083;BME280;18597;48.328;7.932;2023-03-11T11:32:43;98940.81;;;5.40;47.16
32083;BME280;18597;48.328;7.932;2023-03-11T11:35:13;98933.84;;;5.50;47.45
32083;BME280;18597;48.328;7.932;2023-03-11T11:37:46;98940.16;;;5.60;48.24
32083;BME280;18597;48.328;7.932;2023-03-11T11:42:55;98940.91;;;5.84;44.63
32083;BME280;18597;48.328;7.932;2023-03-11T11:45:38;98941.50;;;5.88;44.80
32083;BME280;18597;48.328;7.932;2023-03-11T11:48:18;98935.66;;;6.07;45.08
32083;BME280;18597;48.328;7.932;2023-03-11T11:50:52;98930.47;;;6.17;43.71
32083;BME280;18597;48.328;7.932;2023-03-11T11:53:43;98925.84;;;5.85;45.41
32083;BME280;18597;48.328;7.932;2023-03-11T11:56:12;98928.59;;;5.61;45.62
32083;BME280;18597;48.328;7.932;2023-03-11T11:58:39;98932.41;;;5.57;45.84
32083;BME280;18597;48.328;7.932;2023-03-11T12:07:34;98932.94;;;5.73;46.13
32083;BME280;18597;48.328;7.932;2023-03-11T12:17:08;98902.59;;;5.77;45.14
32083;BME280;18597;48.328;7.932;2023-03-11T12:20:12;98908.72;;;5.89;45.07
32083;BME280;18597;48.328;7.932;2023-03-11T12:23:16;98909.69;;;5.88;43.98
32083;BME280;18597;48.328;7.932;2023-03-11T12:26:12;98911.38;;;5.78;44.67
32083;BME280;18597;48.328;7.932;2023-03-11T12:28:57;98911.00;;;5.71;43.87
32083;BME280;18597;48.328;7.932;2023-03-11T12:31:27;98907.97;;;5.65;44.83
32083;BME280;18597;48.328;7.932;2023-03-11T12:33:58;98904.28;;;5.67;44.78
32083;BME280;18597;48.328;7.932;2023-03-11T12:36:44;98900.28;;;5.73;44.83
32083;BME280;18597;48.328;7.932;2023-03-11T12:39:29;98901.75;;;5.88;44.85
32083;BME280;18597;48.328;7.932;2023-03-11T12:42:18;98893.25;;;6.07;44.55
32083;BME280;18597;48.328;7.932;2023-03-11T12:44:46;98892.25;;;6.19;44.01
32083;BME280;18597;48.328;7.932;2023-03-11T12:49:52;98882.63;;;6.29;43.60
32083;BME280;18597;48.328;7.932;2023-03-11T12:52:25;98880.44;;;6.23;43.41
32083;BME280;18597;48.328;7.932;2023-03-11T12:57:48;98877.78;;;6.46;43.49
32083;BME280;18597;48.328;7.932;2023-03-11T13:06:39;98878.16;;;6.84;41.39
32083;BME280;18597;48.328;7.932;2023-03-11T13:09:14;98884.09;;;6.77;42.19
32083;BME280;18597;48.328;7.932;2023-03-11T13:11:44;98889.75;;;6.72;41.27
32083;BME280;18597;48.328;7.932;2023-03-11T13:14:26;98880.94;;;6.83;42.36
32083;BME280;18597;48.328;7.932;2023-03-11T13:16:53;98891.41;;;6.95;41.99
32083;BME280;18597;48.328;7.932;2023-03-11T13:29:01;98897.66;;;6.94;42.11
32083;BME280;18597;48.328;7.932;2023-03-11T13:38:42;98897.41;;;6.98;41.54
32083;BME280;18597;48.328;7.932;2023-03-11T13:41:32;98896.94;;;6.92;40.15
32083;BME280;18597;48.328;7.932;2023-03-11T13:44:12;98900.50;;;6.82;40.01
32083;BME280;18597;48.328;7.932;2023-03-11T13:46:41;98897.22;;;6.89;38.90
32083;BME280;18597;48.328;7.932;2023-03-11T13:52:34;98885.81;;;6.99;39.62
32083;BME280;18597;48.328;7.932;2023-03-11T13:55:11;98884.22;;;7.07;39.29
32083;BME280;18597;48.328;7.932;2023-03-11T13:57:51;98886.56;;;7.21;38.26
32083;BME280;18597;48.328;7.932;2023-03-11T14:00:21;98884.09;;;7.30;39.58
32083;BME280;18597;48.328;7.932;2023-03-11T14:02:54;98884.25;;;7.28;40.42
32083;BME280;18597;48.328;7.932;2023-03-11T14:05:26;98883.91;;;7.21;38.08
32083;BME280;18597;48.328;7.932;2023-03-11T14:07:53;98876.13;;;7.09;38.19
32083;BME280;18597;48.328;7.932;2023-03-11T14:10:25;98886.53;;;7.01;40.04
32083;BME280;18597;48.328;7.932;2023-03-11T14:13:04;98887.25;;;7.03;39.70
32083;BME280;18597;48.328;7.932;2023-03-11T14:15:39;98890.38;;;7.08;38.88
32083;BME280;18597;48.328;7.932;2023-03-11T14:18:31;98900.69;;;7.22;39.34
32083;BME280;18597;48.328;7.932;2023-03-11T14:20:58;98887.59;;;7.30;38.09
32083;BME280;18597;48.328;7.932;2023-03-11T14:23:38;98897.13;;;7.54;36.92